createdAt,value
2022-10-18T00:02:13.764Z,77.02
2022-10-18T00:04:40.274Z,76.96
2022-10-18T00:07:06.705Z,76.90
2022-10-18T00:09:33.323Z,76.77
2022-10-18T00:12:00.722Z,76.07
2022-10-18T00:14:27.249Z,74.87
2022-10-18T00:16:53.734Z,74.61
2022-10-18T00:19:20.201Z,74.63
2022-10-18T00:21:46.652Z,73.28
2022-10-18T00:24:13.090Z,75.52
2022-10-18T00:26:39.628Z,76.23
2022-10-18T00:29:07.148Z,74.93
2022-10-18T00:31:37.990Z,75.04
2022-10-18T00:34:09.915Z,74.10
2022-10-18T00:36:36.447Z,75.86
2022-10-18T00:39:05.242Z,74.79
2022-10-18T00:41:34.005Z,75.56
2022-10-18T00:44:26.521Z,75.25
2022-10-18T00:46:59.358Z,77.71
2022-10-18T00:49:32.084Z,75.88
2022-10-18T00:52:26.766Z,76.23
2022-10-18T00:54:55.782Z,76.80
2022-10-18T00:57:23.508Z,77.09
2022-10-18T00:59:50.126Z,79.17
2022-10-18T01:02:18.329Z,78.93
2022-10-18T01:04:46.263Z,79.65
2022-10-18T01:07:32.827Z,77.99
2022-10-18T01:10:23.021Z,77.32
2022-10-18T01:16:10.234Z,76.03
2022-10-18T01:18:56.959Z,77.03
2022-10-18T01:21:57.347Z,76.69
2022-10-18T01:24:57.762Z,75.90
2022-10-18T01:27:40.829Z,75.47
2022-10-18T01:30:46.185Z,78.81
2022-10-18T01:33:15.422Z,79.45
2022-10-18T01:35:48.873Z,78.05
2022-10-18T01:38:18.889Z,77.12
2022-10-18T01:40:49.194Z,75.29
2022-10-18T01:43:17.068Z,74.88
2022-10-18T01:45:43.685Z,75.51
2022-10-18T01:48:12.695Z,76.19
2022-10-18T01:50:39.348Z,74.52
2022-10-18T01:53:05.960Z,74.80
2022-10-18T01:55:48.382Z,74.69
2022-10-18T01:58:28.509Z,75.05
2022-10-18T02:01:05.643Z,75.10
2022-10-18T02:03:34.890Z,75.65
2022-10-18T02:06:10.745Z,75.62
2022-10-18T02:08:49.862Z,75.72
2022-10-18T02:11:17.919Z,75.59
2022-10-18T02:13:52.394Z,74.80
2022-10-18T02:16:28.174Z,75.07
2022-10-18T02:21:57.192Z,74.26
2022-10-18T02:24:30.125Z,74.57
2022-10-18T02:26:56.768Z,74.46
2022-10-18T02:29:23.728Z,73.80
2022-10-18T02:31:59.637Z,73.12
2022-10-18T02:34:32.082Z,73.29
2022-10-18T02:37:01.044Z,74.01
2022-10-18T02:39:32.626Z,73.53
2022-10-18T02:41:59.868Z,74.19
2022-10-18T02:44:26.771Z,74.62
2022-10-18T02:46:54.370Z,74.85
2022-10-18T02:49:20.886Z,74.28
2022-10-18T02:51:47.346Z,74.36
2022-10-18T02:54:13.813Z,74.82
2022-10-18T02:56:40.313Z,74.08
2022-10-18T02:59:07.475Z,74.36
2022-10-18T03:01:36.049Z,73.34
2022-10-18T03:04:03.516Z,74.20
2022-10-18T03:06:30.510Z,73.90
2022-10-18T03:08:56.970Z,73.82
2022-10-18T03:11:23.685Z,73.75
2022-10-18T03:13:53.001Z,74.67
2022-10-18T03:16:19.694Z,79.11
2022-10-18T03:18:46.218Z,78.06
2022-10-18T03:21:12.762Z,78.34
2022-10-18T03:23:40.014Z,81.13
2022-10-18T03:26:06.612Z,79.83
2022-10-18T03:28:33.112Z,77.36
2022-10-18T03:31:04.298Z,76.86
2022-10-18T03:33:32.172Z,76.41
2022-10-18T03:35:58.641Z,76.18
2022-10-18T03:38:25.143Z,75.78
2022-10-18T03:40:51.708Z,75.16
2022-10-18T03:43:18.220Z,74.79
2022-10-18T03:45:44.826Z,76.09
2022-10-18T03:48:11.344Z,75.31
2022-10-18T03:50:37.823Z,76.53
2022-10-18T03:53:04.374Z,77.96
2022-10-18T03:55:30.910Z,77.79
2022-10-18T03:57:57.493Z,77.62
2022-10-18T04:00:24.017Z,76.75
2022-10-18T04:02:53.318Z,75.45
2022-10-18T04:05:24.001Z,75.41
2022-10-18T04:07:52.588Z,76.35
2022-10-18T04:10:19.946Z,76.96
2022-10-18T04:12:48.027Z,75.93
2022-10-18T04:15:14.903Z,75.81
2022-10-18T04:17:41.442Z,76.31
2022-10-18T04:20:08.565Z,77.77
2022-10-18T04:22:35.105Z,78.11
2022-10-18T04:25:01.577Z,79.47
2022-10-18T04:27:28.164Z,80.18
2022-10-18T04:29:54.660Z,80.79
2022-10-18T04:32:21.177Z,81.53
2022-10-18T04:34:47.682Z,82.06
2022-10-18T04:37:14.214Z,81.40
2022-10-18T04:39:40.699Z,81.92
2022-10-18T04:42:07.162Z,79.97
2022-10-18T04:44:34.388Z,81.68
2022-10-18T04:47:00.853Z,82.45
2022-10-18T04:49:27.294Z,82.90
2022-10-18T04:51:53.770Z,83.93
2022-10-18T04:54:21.856Z,83.44
2022-10-18T04:56:50.364Z,82.76
2022-10-18T04:59:16.834Z,82.57
2022-10-18T05:01:43.407Z,83.16
2022-10-18T05:04:09.973Z,82.54
2022-10-18T05:06:36.429Z,81.90
2022-10-18T05:09:02.922Z,83.06
2022-10-18T05:11:29.412Z,82.86
2022-10-18T05:13:56.130Z,82.61
2022-10-18T05:16:22.608Z,83.35
2022-10-18T05:18:49.152Z,83.63
2022-10-18T05:21:16.073Z,84.59
2022-10-18T05:23:42.653Z,84.58
2022-10-18T05:26:09.288Z,85.29
2022-10-18T05:28:40.419Z,84.74
2022-10-18T05:31:09.682Z,85.36
2022-10-18T05:33:36.162Z,85.34
2022-10-18T05:36:02.717Z,85.34
2022-10-18T05:38:30.930Z,84.31
2022-10-18T05:40:58.263Z,82.35
2022-10-18T05:43:28.545Z,83.39
2022-10-18T05:45:55.397Z,83.30
2022-10-18T05:48:21.929Z,82.86
2022-10-18T05:50:48.404Z,81.69
2022-10-18T05:53:35.149Z,81.45
2022-10-18T05:56:01.834Z,83.92
2022-10-18T05:58:28.415Z,85.02
2022-10-18T06:00:54.938Z,85.48
2022-10-18T06:03:21.384Z,85.83
2022-10-18T06:05:47.849Z,85.68
2022-10-18T06:08:14.305Z,85.81
2022-10-18T06:10:40.873Z,84.30
2022-10-18T06:13:07.338Z,84.36
2022-10-18T06:15:33.849Z,83.67
2022-10-18T06:18:00.329Z,84.61
2022-10-18T06:20:26.790Z,84.67
2022-10-18T06:22:53.604Z,84.40
2022-10-18T06:25:20.125Z,81.39
2022-10-18T06:27:46.581Z,83.11
2022-10-18T06:30:13.126Z,84.22
2022-10-18T06:32:39.612Z,84.44
2022-10-18T06:35:06.851Z,84.60
2022-10-18T06:37:35.507Z,84.95
2022-10-18T06:40:02.314Z,85.41
2022-10-18T06:42:28.851Z,85.76
2022-10-18T06:44:55.307Z,85.86
2022-10-18T06:47:21.792Z,86.01
2022-10-18T06:49:48.239Z,85.61
2022-10-18T06:52:17.715Z,85.21
2022-10-18T06:54:45.393Z,84.79
2022-10-18T06:57:12.016Z,85.27
2022-10-18T06:59:38.554Z,83.52
2022-10-18T07:02:05.444Z,83.39
2022-10-18T07:04:32.092Z,83.30
2022-10-18T07:06:58.697Z,83.03
2022-10-18T07:09:25.230Z,83.60
2022-10-18T07:11:52.902Z,83.31
2022-10-18T07:14:19.404Z,84.34
2022-10-18T07:16:45.892Z,85.10
2022-10-18T07:19:12.453Z,85.50
2022-10-18T07:21:38.898Z,85.06
2022-10-18T07:24:05.585Z,84.85
2022-10-18T07:26:34.649Z,85.04
2022-10-18T07:29:11.772Z,85.05
2022-10-18T07:31:38.676Z,85.54
2022-10-18T07:34:06.253Z,83.83
2022-10-18T07:36:33.213Z,85.37
2022-10-18T07:38:59.913Z,85.06
2022-10-18T07:41:26.377Z,85.26
2022-10-18T07:43:53.515Z,85.57
2022-10-18T07:46:21.672Z,86.34
2022-10-18T07:48:48.849Z,86.67
2022-10-18T07:51:15.746Z,86.40
2022-10-18T07:53:42.306Z,86.18
2022-10-18T07:56:15.661Z,87.02
2022-10-18T07:58:43.776Z,86.90
2022-10-18T08:01:10.671Z,86.04
2022-10-18T08:03:38.086Z,87.12
2022-10-18T08:06:08.044Z,87.11
2022-10-18T08:08:35.646Z,87.18
2022-10-18T08:11:04.714Z,84.74
2022-10-18T08:13:31.739Z,85.85
2022-10-18T08:16:07.104Z,86.14
2022-10-18T08:18:33.637Z,85.82
2022-10-18T08:21:01.078Z,86.17
2022-10-18T08:23:27.660Z,86.70
2022-10-18T08:25:54.133Z,86.07
2022-10-18T08:28:20.717Z,85.57
2022-10-18T08:30:47.169Z,86.45
2022-10-18T08:33:13.785Z,85.95
2022-10-18T08:35:40.254Z,86.13
2022-10-18T08:38:16.414Z,85.48
2022-10-18T08:40:45.040Z,86.28
2022-10-18T08:43:26.406Z,86.16
2022-10-18T08:45:54.456Z,86.39
2022-10-18T08:48:29.795Z,85.58
2022-10-18T08:50:58.332Z,85.36
2022-10-18T08:53:33.086Z,85.41
2022-10-18T08:56:24.058Z,85.70
2022-10-18T08:58:50.644Z,85.58
2022-10-18T09:01:23.582Z,85.12
2022-10-18T09:04:23.980Z,85.16
2022-10-18T09:07:05.627Z,85.01
2022-10-18T09:09:59.982Z,84.45
2022-10-18T09:12:42.759Z,83.65
2022-10-18T09:15:40.366Z,82.77
2022-10-18T09:18:20.246Z,83.48
2022-10-18T09:20:52.681Z,83.90
2022-10-18T09:23:22.964Z,84.27
2022-10-18T09:26:17.658Z,83.08
2022-10-18T09:29:07.119Z,84.25
2022-10-18T09:31:49.557Z,84.22
2022-10-18T09:34:40.190Z,83.89
2022-10-18T09:37:13.497Z,83.59
2022-10-18T09:39:40.890Z,83.40
2022-10-18T09:42:21.535Z,83.38
2022-10-18T09:44:52.966Z,83.46
2022-10-18T09:50:15.430Z,83.60
2022-10-18T09:52:54.548Z,83.07
2022-10-18T09:55:31.052Z,83.62
2022-10-18T09:58:01.804Z,83.13
2022-10-18T10:00:31.910Z,83.92
2022-10-18T10:03:01.601Z,83.09
2022-10-18T10:05:28.041Z,82.04
2022-10-18T10:08:02.113Z,82.27
2022-10-18T10:10:30.337Z,83.14
2022-10-18T10:13:22.703Z,83.31
2022-10-18T10:15:55.857Z,82.51
2022-10-18T10:18:25.478Z,83.20
2022-10-18T10:20:58.156Z,83.18
2022-10-18T10:23:36.878Z,83.74
2022-10-18T10:26:27.455Z,84.93
2022-10-18T10:28:54.277Z,84.78
2022-10-18T10:31:31.514Z,85.80
2022-10-18T10:34:02.236Z,86.37
2022-10-18T10:36:30.318Z,86.60
2022-10-18T10:39:11.181Z,86.43
2022-10-18T10:41:40.234Z,87.18
2022-10-18T10:44:16.973Z,86.89
2022-10-18T10:46:44.078Z,86.41
2022-10-18T10:49:39.671Z,86.21
2022-10-18T10:52:15.376Z,85.98
2022-10-18T10:54:52.120Z,86.05
2022-10-18T10:57:28.904Z,85.39
2022-10-18T10:59:59.653Z,86.31
2022-10-18T11:02:31.728Z,86.24
2022-10-18T11:05:22.567Z,86.00
2022-10-18T11:07:52.206Z,86.70
2022-10-18T11:10:22.808Z,87.11
2022-10-18T11:13:02.494Z,86.98
2022-10-18T11:15:47.164Z,87.56
2022-10-18T11:18:14.643Z,87.49
2022-10-18T11:20:45.341Z,87.52
2022-10-18T11:23:14.397Z,87.95
2022-10-18T11:26:00.877Z,87.46
2022-10-18T11:28:36.436Z,87.49
2022-10-18T11:31:18.897Z,88.11
2022-10-18T11:34:12.115Z,88.17
2022-10-18T11:36:56.333Z,88.34
2022-10-18T11:39:43.494Z,87.90
2022-10-18T11:42:25.662Z,87.62
2022-10-18T11:45:14.965Z,87.90
2022-10-18T11:47:56.994Z,87.60
2022-10-18T11:50:29.326Z,87.84
2022-10-18T11:53:09.845Z,88.27
2022-10-18T11:55:56.768Z,88.16
2022-10-18T11:58:25.936Z,87.68
2022-10-18T12:00:58.561Z,88.34
2022-10-18T12:03:40.260Z,88.30
2022-10-18T12:06:15.054Z,88.63
2022-10-18T12:08:49.872Z,88.33
2022-10-18T12:11:22.318Z,88.31
2022-10-18T12:13:53.697Z,87.73
2022-10-18T12:16:45.585Z,87.63
2022-10-18T12:19:23.354Z,87.91
2022-10-18T12:21:53.832Z,87.73
2022-10-18T12:24:25.227Z,87.78
2022-10-18T12:26:57.050Z,88.38
2022-10-18T12:29:45.318Z,88.48
2022-10-18T12:32:29.802Z,88.78
2022-10-18T12:35:16.201Z,89.00
2022-10-18T12:38:07.616Z,88.71
2022-10-18T12:40:50.775Z,88.98
2022-10-18T12:43:22.645Z,89.23
2022-10-18T12:45:55.296Z,89.22
2022-10-18T12:48:31.660Z,89.22
2022-10-18T12:51:20.846Z,89.49
2022-10-18T12:54:09.159Z,88.97
2022-10-18T12:56:42.112Z,89.04
2022-10-18T12:59:14.934Z,88.32
2022-10-18T13:02:04.430Z,88.27
2022-10-18T13:04:32.454Z,87.84
2022-10-18T13:07:05.003Z,88.17
2022-10-18T13:09:36.640Z,88.15
2022-10-18T13:12:09.168Z,88.23
2022-10-18T13:14:35.621Z,87.36
2022-10-18T13:17:20.960Z,87.23
2022-10-18T13:20:24.028Z,86.45
2022-10-18T13:23:20.014Z,86.72
2022-10-18T13:26:00.602Z,86.53
2022-10-18T13:28:53.351Z,86.39
2022-10-18T13:31:27.019Z,86.37
2022-10-18T13:33:53.549Z,85.57
2022-10-18T13:36:24.873Z,86.48
2022-10-18T13:38:55.775Z,86.10
2022-10-18T13:44:02.577Z,84.67
2022-10-18T13:46:36.392Z,83.46
2022-10-18T13:49:19.686Z,83.27
2022-10-18T13:52:08.750Z,84.34
2022-10-18T13:54:53.586Z,83.73
2022-10-18T13:57:42.021Z,83.33
2022-10-18T14:00:30.021Z,82.91
2022-10-18T14:03:43.973Z,83.36
2022-10-18T14:06:10.560Z,84.31
2022-10-18T14:08:52.555Z,85.22
2022-10-18T14:11:41.993Z,86.08
2022-10-18T14:14:16.895Z,86.33
2022-10-18T14:17:14.188Z,86.56
2022-10-18T14:19:55.168Z,86.50
2022-10-18T14:22:46.055Z,86.76
2022-10-18T14:25:32.321Z,87.31
2022-10-18T14:28:15.431Z,87.18
2022-10-18T14:30:57.877Z,87.72
2022-10-18T14:33:32.598Z,87.86
2022-10-18T14:36:15.334Z,88.08
2022-10-18T14:38:53.053Z,88.44
2022-10-18T14:41:28.965Z,88.45
2022-10-18T14:44:14.772Z,88.35
2022-10-18T14:46:53.202Z,88.22
2022-10-18T14:49:21.050Z,88.09
2022-10-18T14:51:51.646Z,88.35
2022-10-18T14:54:46.688Z,87.26
2022-10-18T14:57:33.867Z,87.18
2022-10-18T15:00:04.892Z,86.47
2022-10-18T15:02:35.936Z,86.82
2022-10-18T15:05:07.396Z,86.86
2022-10-18T15:07:37.025Z,87.50
2022-10-18T15:10:05.295Z,87.10
2022-10-18T15:12:40.954Z,87.39
2022-10-18T15:15:20.827Z,87.60
2022-10-18T15:17:49.368Z,88.21
2022-10-18T15:20:22.764Z,87.96
2022-10-18T15:22:49.472Z,88.00
2022-10-18T15:25:32.058Z,88.19
2022-10-18T15:28:00.481Z,88.20
2022-10-18T15:30:37.366Z,88.04
2022-10-18T15:33:09.677Z,88.02
2022-10-18T15:35:38.346Z,87.38
2022-10-18T15:38:24.208Z,86.84
2022-10-18T15:40:51.007Z,86.41
2022-10-18T15:43:37.854Z,84.90
2022-10-18T15:46:06.588Z,83.45
2022-10-18T15:48:38.739Z,82.34
2022-10-18T15:51:23.716Z,82.26
2022-10-18T15:53:52.968Z,81.95
2022-10-18T15:56:30.322Z,81.59
2022-10-18T15:58:58.710Z,81.47
2022-10-18T16:01:36.042Z,80.79
2022-10-18T16:04:18.211Z,80.25
2022-10-18T16:06:44.854Z,80.70
2022-10-18T16:09:18.683Z,80.13
2022-10-18T16:11:45.572Z,80.04
2022-10-18T16:14:12.029Z,79.49
2022-10-18T16:16:39.899Z,78.81
2022-10-18T16:19:07.226Z,78.88
2022-10-18T16:21:38.535Z,77.98
2022-10-18T16:24:05.964Z,77.82
2022-10-18T16:26:32.703Z,77.26
2022-10-18T16:28:59.841Z,77.30
2022-10-18T16:31:29.310Z,77.08
2022-10-18T16:33:56.112Z,78.51
2022-10-18T16:36:25.298Z,78.33
2022-10-18T16:38:51.868Z,78.20
2022-10-18T16:41:18.534Z,77.29
2022-10-18T16:43:46.970Z,77.06
2022-10-18T16:46:17.664Z,76.81
2022-10-18T16:48:45.002Z,78.31
2022-10-18T16:51:11.944Z,77.85
2022-10-18T16:53:38.682Z,76.67
2022-10-18T16:56:11.737Z,76.71
2022-10-18T16:58:38.227Z,76.91
2022-10-18T17:01:08.019Z,76.17
2022-10-18T17:03:35.599Z,76.14
2022-10-18T17:06:02.043Z,76.68
2022-10-18T17:08:28.641Z,76.15
2022-10-18T17:10:57.559Z,78.55
2022-10-18T17:13:25.603Z,78.19
2022-10-18T17:15:53.404Z,78.01
2022-10-18T17:18:23.283Z,76.95
2022-10-18T17:20:50.293Z,76.11
2022-10-18T17:23:16.942Z,76.49
2022-10-18T17:25:57.456Z,75.83
2022-10-18T17:28:31.243Z,76.31
2022-10-18T17:30:57.770Z,75.45
2022-10-18T17:33:24.279Z,75.71
2022-10-18T17:35:50.758Z,76.54
2022-10-18T17:38:17.218Z,76.92
2022-10-18T17:40:43.804Z,78.02
2022-10-18T17:43:10.426Z,77.76
2022-10-18T17:45:36.964Z,77.93
2022-10-18T17:48:03.595Z,76.64
2022-10-18T17:50:30.077Z,76.24
2022-10-18T17:52:57.312Z,77.16
2022-10-18T17:55:23.780Z,80.40
2022-10-18T17:57:51.464Z,81.81
2022-10-18T18:00:17.987Z,79.87
2022-10-18T18:02:44.759Z,80.63
2022-10-18T18:05:12.572Z,80.32
2022-10-18T18:07:39.053Z,78.15
2022-10-18T18:10:06.006Z,76.76
2022-10-18T18:12:32.739Z,76.28
2022-10-18T18:14:59.518Z,76.24
2022-10-18T18:17:34.048Z,77.05
2022-10-18T18:20:01.081Z,76.86
2022-10-18T18:22:27.553Z,77.07
2022-10-18T18:24:54.027Z,78.93
2022-10-18T18:27:20.473Z,79.02
2022-10-18T18:29:48.293Z,79.45
2022-10-18T18:32:15.087Z,81.22
2022-10-18T18:34:41.684Z,79.98
2022-10-18T18:37:09.338Z,80.49
2022-10-18T18:39:36.325Z,81.88
2022-10-18T18:42:03.919Z,81.48
2022-10-18T18:44:32.078Z,82.20
2022-10-18T18:46:58.868Z,81.67
2022-10-18T18:49:27.386Z,82.13
2022-10-18T18:51:53.918Z,82.28
2022-10-18T18:54:21.980Z,81.54
2022-10-18T18:56:48.531Z,80.76
2022-10-18T18:59:15.729Z,80.55
2022-10-18T19:01:42.778Z,79.89
2022-10-18T19:04:10.939Z,81.25
2022-10-18T19:06:42.828Z,80.11
2022-10-18T19:09:18.538Z,80.43
2022-10-18T19:11:46.946Z,80.90
2022-10-18T19:14:14.318Z,81.75
2022-10-18T19:16:46.376Z,82.40
2022-10-18T19:19:15.432Z,81.83
2022-10-18T19:21:53.853Z,80.23
2022-10-18T19:24:21.731Z,81.97
2022-10-18T19:26:54.378Z,82.66
2022-10-18T19:29:22.321Z,84.11
2022-10-18T19:31:50.213Z,83.29
2022-10-18T19:34:17.773Z,82.08
2022-10-18T19:36:46.411Z,81.75
2022-10-18T19:39:23.494Z,81.30
2022-10-18T19:41:52.593Z,80.85
2022-10-18T19:44:20.129Z,80.86
2022-10-18T19:46:47.188Z,80.85
2022-10-18T19:49:14.014Z,82.42
2022-10-18T19:51:40.802Z,82.37
2022-10-18T19:54:07.454Z,83.16
2022-10-18T19:56:34.056Z,82.54
2022-10-18T19:59:00.714Z,82.38
2022-10-18T20:01:28.440Z,80.08
2022-10-18T20:03:55.368Z,81.63
2022-10-18T20:06:22.328Z,81.22
2022-10-18T20:08:48.890Z,80.78
2022-10-18T20:11:23.277Z,81.58
2022-10-18T20:13:50.418Z,81.73
2022-10-18T20:16:18.900Z,82.24
2022-10-18T20:18:45.343Z,81.56
2022-10-18T20:21:14.958Z,80.06
2022-10-18T20:23:44.000Z,80.54
2022-10-18T20:26:17.982Z,81.30
2022-10-18T20:28:48.187Z,82.20
2022-10-18T20:31:17.828Z,82.84
2022-10-18T20:33:45.861Z,80.56
2022-10-18T20:36:17.441Z,80.01
2022-10-18T20:38:46.248Z,80.13
2022-10-18T20:41:16.322Z,79.90
2022-10-18T20:43:43.208Z,78.77
2022-10-18T20:46:10.308Z,81.48
2022-10-18T20:48:38.481Z,81.43
2022-10-18T20:51:07.009Z,79.36
2022-10-18T20:53:35.243Z,77.59
2022-10-18T20:56:07.236Z,77.27
2022-10-18T20:58:37.632Z,76.66
2022-10-18T21:01:22.548Z,76.06
2022-10-18T21:03:50.661Z,76.56
2022-10-18T21:06:23.133Z,76.67
2022-10-18T21:09:11.923Z,77.54
2022-10-18T21:11:40.925Z,79.81
2022-10-18T21:14:12.025Z,77.19
2022-10-18T21:16:38.473Z,79.22
2022-10-18T21:19:06.962Z,80.95
2022-10-18T21:21:33.687Z,79.46
2022-10-18T21:24:02.603Z,77.93
2022-10-18T21:26:32.099Z,77.02
2022-10-18T21:28:59.688Z,78.15
2022-10-18T21:31:31.494Z,77.35
2022-10-18T21:34:00.095Z,76.63
2022-10-18T21:36:31.026Z,77.50
2022-10-18T21:38:57.932Z,77.69
2022-10-18T21:41:24.839Z,78.32
2022-10-18T21:43:53.721Z,77.17
2022-10-18T21:46:22.041Z,77.17
2022-10-18T21:48:51.652Z,77.90
2022-10-18T21:51:20.046Z,80.34
2022-10-18T21:53:48.424Z,79.42
2022-10-18T21:56:23.715Z,78.50
2022-10-18T21:58:50.647Z,77.23
2022-10-18T22:01:23.935Z,78.16
2022-10-18T22:03:51.938Z,78.84
2022-10-18T22:06:19.452Z,77.89
2022-10-18T22:08:52.378Z,76.99
2022-10-18T22:11:21.956Z,76.67
2022-10-18T22:13:48.531Z,76.71
2022-10-18T22:16:16.773Z,75.97
2022-10-18T22:18:44.793Z,76.12
2022-10-18T22:21:12.732Z,76.51
2022-10-18T22:23:44.908Z,76.02
2022-10-18T22:26:23.761Z,76.39
2022-10-18T22:29:01.827Z,80.20
2022-10-18T22:31:32.131Z,83.35
2022-10-18T22:34:01.083Z,84.69
2022-10-18T22:36:27.808Z,84.15
2022-10-18T22:38:54.324Z,82.47
2022-10-18T22:41:20.809Z,79.74
2022-10-18T22:43:47.776Z,78.78
2022-10-18T22:46:15.506Z,79.60
2022-10-18T22:48:43.045Z,81.04
2022-10-18T22:51:10.548Z,80.09
2022-10-18T22:53:38.152Z,80.23
2022-10-18T22:56:05.070Z,79.66
2022-10-18T22:58:32.223Z,80.36
2022-10-18T23:01:08.336Z,80.97
2022-10-18T23:03:35.516Z,81.66
2022-10-18T23:06:02.758Z,80.60
2022-10-18T23:08:29.679Z,80.38
2022-10-18T23:10:58.523Z,79.71
2022-10-18T23:13:26.886Z,80.54
2022-10-18T23:15:53.603Z,80.94
2022-10-18T23:18:20.241Z,81.47
2022-10-18T23:20:46.693Z,81.29
2022-10-18T23:23:13.569Z,80.67
2022-10-18T23:25:40.300Z,79.60
2022-10-18T23:28:07.012Z,80.96
2022-10-18T23:30:33.890Z,80.25
2022-10-18T23:33:00.628Z,79.72
2022-10-18T23:35:29.288Z,79.46
2022-10-18T23:37:55.783Z,80.29
2022-10-18T23:40:22.232Z,80.36
2022-10-18T23:42:48.693Z,79.94
2022-10-18T23:45:15.197Z,81.12
2022-10-18T23:47:41.656Z,81.16
2022-10-18T23:50:08.558Z,80.98
2022-10-18T23:52:35.034Z,80.65
2022-10-18T23:55:01.502Z,79.83
2022-10-18T23:57:28.730Z,80.91
2022-10-18T23:59:55.220Z,80.70
